createdAt,value
2018-07-02T00:00:39.500Z,101396.85
2018-07-02T00:03:08.194Z,101395.69
2018-07-02T00:05:47.865Z,101391.86
2018-07-02T00:08:16.520Z,101392.98
2018-07-02T00:10:45.191Z,101395.36
2018-07-02T00:13:13.873Z,101399.36
2018-07-02T00:15:42.614Z,101396.83
2018-07-02T00:18:11.059Z,101396.00
2018-07-02T00:20:39.660Z,101391.67
2018-07-02T00:23:08.217Z,101395.83
2018-07-02T00:25:36.885Z,101388.70
2018-07-02T00:28:05.432Z,101389.95
2018-07-02T00:30:34.143Z,101388.75
2018-07-02T00:33:02.835Z,101389.75
2018-07-02T00:35:32.046Z,101391.05
2018-07-02T00:38:00.694Z,101387.69
2018-07-02T00:40:29.374Z,101389.09
2018-07-02T00:42:57.983Z,101385.39
2018-07-02T00:45:26.527Z,101382.39
2018-07-02T00:47:55.062Z,101381.73
2018-07-02T00:50:23.635Z,101380.70
2018-07-02T00:52:52.331Z,101370.72
2018-07-02T00:55:20.864Z,101369.53
2018-07-02T00:57:49.558Z,101370.01
2018-07-02T01:00:18.303Z,101372.99
2018-07-02T01:02:46.974Z,101367.01
2018-07-02T01:05:16.465Z,101368.44
2018-07-02T01:07:45.543Z,101370.20
2018-07-02T01:10:14.384Z,101362.84
2018-07-02T01:12:42.976Z,101359.45
2018-07-02T01:15:12.335Z,101365.23
2018-07-02T01:17:40.975Z,101366.97
2018-07-02T01:20:09.562Z,101358.39
2018-07-02T01:22:38.066Z,101358.45
2018-07-02T01:25:06.666Z,101364.08
2018-07-02T01:27:35.286Z,101359.84
2018-07-02T01:30:05.214Z,101353.34
2018-07-02T01:32:33.773Z,101356.00
2018-07-02T01:35:02.674Z,101350.47
2018-07-02T01:37:31.418Z,101347.88
2018-07-02T01:40:00.323Z,101352.34
2018-07-02T01:42:29.440Z,101350.12
2018-07-02T01:44:58.289Z,101351.55
2018-07-02T01:47:26.884Z,101357.64
2018-07-02T01:49:55.392Z,101362.04
2018-07-02T01:52:23.855Z,101354.79
2018-07-02T01:54:52.577Z,101357.83
2018-07-02T01:57:22.200Z,101354.08
2018-07-02T01:59:50.806Z,101347.23
2018-07-02T02:02:19.393Z,101345.49
2018-07-02T02:04:47.930Z,101341.22
2018-07-02T02:07:16.992Z,101342.50
2018-07-02T02:09:46.485Z,101339.65
2018-07-02T02:12:16.164Z,101346.34
2018-07-02T02:14:45.725Z,101343.74
2018-07-02T02:17:14.388Z,101344.55
2018-07-02T02:19:43.052Z,101353.77
2018-07-02T02:22:11.678Z,101355.07
2018-07-02T02:24:40.242Z,101351.91
2018-07-02T02:27:08.826Z,101346.27
2018-07-02T02:29:37.351Z,101339.41
2018-07-02T02:32:05.893Z,101347.41
2018-07-02T02:34:34.420Z,101348.66
2018-07-02T02:37:02.932Z,101346.56
2018-07-02T02:39:31.476Z,101344.09
2018-07-02T02:42:00.074Z,101345.84
2018-07-02T02:44:28.820Z,101350.66
2018-07-02T02:46:57.634Z,101351.22
2018-07-02T02:49:28.209Z,101354.42
2018-07-02T02:51:56.773Z,101357.47
2018-07-02T02:54:25.410Z,101358.81
2018-07-02T02:56:54.027Z,101354.56
2018-07-02T02:59:23.144Z,101354.12
2018-07-02T03:01:51.721Z,101359.80
2018-07-02T03:04:20.352Z,101365.98
2018-07-02T03:06:48.913Z,101363.39
2018-07-02T03:09:17.645Z,101355.74
2018-07-02T03:11:46.809Z,101356.63
2018-07-02T03:14:15.435Z,101358.27
2018-07-02T03:16:44.205Z,101359.63
2018-07-02T03:19:14.902Z,101356.85
2018-07-02T03:21:43.515Z,101359.82
2018-07-02T03:24:13.042Z,101358.16
2018-07-02T03:26:41.658Z,101359.45
2018-07-02T03:29:10.707Z,101368.69
2018-07-02T03:31:40.046Z,101360.59
2018-07-02T03:34:08.724Z,101367.98
2018-07-02T03:36:37.256Z,101364.91
2018-07-02T03:39:07.944Z,101360.96
2018-07-02T03:41:36.535Z,101369.13
2018-07-02T03:44:05.546Z,101375.98
2018-07-02T03:46:34.605Z,101380.80
2018-07-02T03:49:04.562Z,101385.11
2018-07-02T03:51:33.239Z,101395.38
2018-07-02T03:54:02.499Z,101401.44
2018-07-02T03:56:31.098Z,101394.95
2018-07-02T03:58:59.996Z,101390.83
2018-07-02T04:01:28.659Z,101394.88
2018-07-02T04:03:57.290Z,101398.81
2018-07-02T04:06:25.863Z,101395.27
2018-07-02T04:08:54.499Z,101397.80
2018-07-02T04:11:23.078Z,101397.33
2018-07-02T04:13:52.570Z,101398.23
2018-07-02T04:16:21.098Z,101390.45
2018-07-02T04:18:49.687Z,101396.03
2018-07-02T04:21:18.143Z,101398.19
2018-07-02T04:23:46.683Z,101396.89
2018-07-02T04:26:15.213Z,101396.94
2018-07-02T04:28:43.779Z,101396.98
2018-07-02T04:31:12.433Z,101397.10
2018-07-02T04:33:40.972Z,101393.20
2018-07-02T04:36:09.760Z,101399.53
2018-07-02T04:38:38.431Z,101392.45
2018-07-02T04:41:07.862Z,101400.13
2018-07-02T04:43:36.511Z,101397.00
2018-07-02T04:46:05.885Z,101387.28
2018-07-02T04:48:34.515Z,101388.45
2018-07-02T04:51:03.228Z,101386.19
2018-07-02T04:53:31.753Z,101378.73
2018-07-02T04:56:00.878Z,101380.36
2018-07-02T04:58:29.496Z,101379.44
2018-07-02T05:00:58.179Z,101383.23
2018-07-02T05:03:26.876Z,101380.30
2018-07-02T05:05:56.693Z,101386.78
2018-07-02T05:08:25.562Z,101389.28
2018-07-02T05:10:54.778Z,101397.88
2018-07-02T05:13:24.134Z,101391.80
2018-07-02T05:15:52.727Z,101395.28
2018-07-02T05:18:21.415Z,101392.35
2018-07-02T05:20:49.982Z,101394.41
2018-07-02T05:23:18.673Z,101387.91
2018-07-02T05:25:48.117Z,101391.87
2018-07-02T05:28:16.847Z,101396.07
2018-07-02T05:30:46.341Z,101391.94
2018-07-02T05:33:15.258Z,101391.83
2018-07-02T05:35:43.722Z,101397.27
2018-07-02T05:38:12.244Z,101392.37
2018-07-02T05:40:40.748Z,101391.76
2018-07-02T05:43:09.359Z,101396.09
2018-07-02T05:45:37.958Z,101391.19
2018-07-02T05:48:06.587Z,101393.34
2018-07-02T05:50:35.156Z,101398.91
2018-07-02T05:53:03.868Z,101397.24
2018-07-02T05:55:32.581Z,101393.28
2018-07-02T05:58:01.273Z,101392.98
2018-07-02T06:00:29.831Z,101394.67
2018-07-02T06:02:58.666Z,101391.98
2018-07-02T06:05:27.303Z,101391.41
2018-07-02T06:07:55.915Z,101392.53
2018-07-02T06:10:24.928Z,101396.80
2018-07-02T06:12:53.504Z,101393.20
2018-07-02T06:15:31.392Z,101392.59
2018-07-02T06:18:00.991Z,101392.48
2018-07-02T06:20:30.349Z,101394.95
2018-07-02T06:22:59.023Z,101392.52
2018-07-02T06:25:27.968Z,101385.08
2018-07-02T06:27:58.905Z,101391.54
2018-07-02T06:30:28.657Z,101386.71
2018-07-02T06:32:57.138Z,101388.76
2018-07-02T06:35:25.910Z,101394.64
2018-07-02T06:37:55.259Z,101387.56
2018-07-02T06:40:23.865Z,101390.01
2018-07-02T06:42:52.355Z,101387.96
2018-07-02T06:45:21.165Z,101395.59
2018-07-02T06:47:49.781Z,101389.81
2018-07-02T06:50:18.335Z,101386.00
2018-07-02T06:52:46.866Z,101388.60
2018-07-02T06:55:16.327Z,101383.84
2018-07-02T06:57:45.609Z,101391.95
2018-07-02T07:00:14.648Z,101382.25
2018-07-02T07:02:43.215Z,101377.78
2018-07-02T07:05:11.869Z,101376.70
2018-07-02T07:07:40.423Z,101385.23
2018-07-02T07:10:08.989Z,101379.17
2018-07-02T07:12:37.613Z,101387.19
2018-07-02T07:15:08.055Z,101383.36
2018-07-02T07:17:36.660Z,101381.84
2018-07-02T07:20:05.860Z,101376.02
2018-07-02T07:22:34.421Z,101372.81
2018-07-02T07:25:03.513Z,101378.69
2018-07-02T07:27:32.101Z,101378.16
2018-07-02T07:30:00.678Z,101383.64
2018-07-02T07:32:29.240Z,101383.45
2018-07-02T07:34:57.780Z,101381.64
2018-07-02T07:37:26.696Z,101381.50
2018-07-02T07:39:55.361Z,101382.99
2018-07-02T07:42:24.164Z,101384.02
2018-07-02T07:44:52.836Z,101387.52
2018-07-02T07:47:21.429Z,101385.69
2018-07-02T07:49:50.041Z,101393.83
2018-07-02T07:52:18.721Z,101388.89
2018-07-02T07:54:47.408Z,101387.80
2018-07-02T07:57:16.242Z,101384.56
2018-07-02T07:59:44.832Z,101384.14
2018-07-02T08:02:13.361Z,101388.67
2018-07-02T08:04:42.510Z,101386.25
2018-07-02T08:07:11.767Z,101388.23
2018-07-02T08:09:40.522Z,101384.06
2018-07-02T08:12:09.161Z,101387.88
2018-07-02T08:14:37.794Z,101386.37
2018-07-02T08:17:06.347Z,101381.98
2018-07-02T08:19:35.184Z,101394.64
2018-07-02T08:22:03.759Z,101397.15
2018-07-02T08:24:32.326Z,101386.03
2018-07-02T08:27:01.143Z,101394.11
2018-07-02T08:29:30.616Z,101394.31
2018-07-02T08:31:59.660Z,101394.72
2018-07-02T08:34:28.178Z,101395.86
2018-07-02T08:36:56.833Z,101393.11
2018-07-02T08:39:25.464Z,101394.31
2018-07-02T08:41:54.632Z,101393.11
2018-07-02T08:44:23.550Z,101399.05
2018-07-02T08:46:52.143Z,101390.88
2018-07-02T08:49:20.779Z,101385.45
2018-07-02T08:51:50.265Z,101380.73
2018-07-02T08:54:18.808Z,101372.75
2018-07-02T08:56:47.443Z,101371.59
2018-07-02T08:59:16.435Z,101374.39
2018-07-02T09:01:45.969Z,101378.09
2018-07-02T09:04:15.103Z,101368.66
2018-07-02T09:06:43.583Z,101368.33
2018-07-02T09:09:12.870Z,101368.06
2018-07-02T09:11:41.499Z,101358.01
2018-07-02T09:14:10.084Z,101362.48
2018-07-02T09:16:38.703Z,101359.38
2018-07-02T09:19:08.418Z,101357.12
2018-07-02T09:21:38.011Z,101353.59
2018-07-02T09:24:06.924Z,101345.55
2018-07-02T09:26:35.541Z,101350.66
2018-07-02T16:19:09.966Z,101114.05
2018-07-02T16:21:40.000Z,101113.98
2018-07-02T16:24:09.391Z,101106.25
2018-07-02T16:26:38.413Z,101098.91
2018-07-02T16:29:07.581Z,101105.11
2018-07-02T16:31:37.479Z,101105.89
2018-07-02T16:34:06.731Z,101107.92
2018-07-02T16:36:35.329Z,101106.35
2018-07-02T16:39:05.584Z,101104.66
2018-07-02T16:41:34.504Z,101095.39
2018-07-02T16:44:03.213Z,101098.49
2018-07-02T16:46:31.890Z,101099.38
2018-07-02T16:49:00.422Z,101109.43
2018-07-02T16:51:28.992Z,101100.05
2018-07-02T16:53:57.614Z,101108.22
2018-07-02T16:56:26.233Z,101107.27
2018-07-02T16:58:55.779Z,101101.97
2018-07-02T17:01:25.634Z,101098.34
2018-07-02T17:03:54.987Z,101099.41
2018-07-02T17:06:24.585Z,101097.98
2018-07-02T17:08:53.267Z,101106.61
2018-07-02T17:11:21.936Z,101100.23
2018-07-02T17:13:50.615Z,101099.28
2018-07-02T17:16:19.239Z,101099.34
2018-07-02T17:18:48.812Z,101097.40
2018-07-02T17:21:17.615Z,101099.34
2018-07-02T17:23:46.223Z,101096.42
2018-07-02T17:26:14.847Z,101095.02
2018-07-02T17:28:43.539Z,101101.05
2018-07-02T17:31:12.229Z,101101.17
2018-07-02T17:33:40.896Z,101099.53
2018-07-02T17:36:09.511Z,101098.25
2018-07-02T17:38:38.141Z,101099.42
2018-07-02T17:41:06.853Z,101097.02
2018-07-02T17:43:35.473Z,101099.00
2018-07-02T17:46:04.104Z,101097.11
2018-07-02T17:48:33.685Z,101099.41
2018-07-02T17:51:02.272Z,101098.71
2018-07-02T17:53:30.841Z,101101.23
2018-07-02T17:55:59.842Z,101094.87
2018-07-02T17:58:28.408Z,101110.03
2018-07-02T18:00:56.979Z,101100.37
2018-07-02T18:03:25.665Z,101104.22
2018-07-02T18:05:54.933Z,101095.66
2018-07-02T18:08:23.449Z,101097.10
2018-07-02T18:10:51.947Z,101105.78
2018-07-02T18:13:20.706Z,101103.91
2018-07-02T18:15:49.912Z,101102.17
2018-07-02T18:18:18.472Z,101103.02
2018-07-02T18:20:47.110Z,101103.20
2018-07-02T18:23:15.597Z,101104.39
2018-07-02T18:25:44.392Z,101106.80
2018-07-02T18:28:12.953Z,101095.31
2018-07-02T18:30:41.563Z,101093.53
2018-07-02T18:33:10.081Z,101095.88
2018-07-02T18:35:38.954Z,101091.52
2018-07-02T18:38:07.584Z,101090.17
2018-07-02T18:40:36.752Z,101094.61
2018-07-02T18:43:05.546Z,101095.43
2018-07-02T18:45:34.207Z,101097.73
2018-07-02T18:48:02.809Z,101102.70
2018-07-02T18:50:31.276Z,101103.06
2018-07-02T18:52:59.809Z,101104.02
2018-07-02T18:55:28.316Z,101104.27
2018-07-02T18:57:57.076Z,101106.67
2018-07-02T19:00:26.259Z,101109.91
2018-07-02T19:02:54.851Z,101107.23
2018-07-02T19:05:23.648Z,101108.89
2018-07-02T19:07:52.811Z,101113.77
2018-07-02T19:10:22.413Z,101112.86
2018-07-02T19:12:52.311Z,101117.38
2018-07-02T19:15:21.535Z,101112.62
2018-07-02T19:17:50.311Z,101113.41
2018-07-02T19:20:26.141Z,101112.16
2018-07-02T19:22:59.859Z,101119.41
2018-07-02T19:25:34.583Z,101117.70
2018-07-02T19:28:06.935Z,101117.80
2018-07-02T19:30:42.315Z,101116.86
2018-07-02T19:33:11.604Z,101124.66
2018-07-02T19:35:40.523Z,101129.92
2018-07-02T19:38:09.244Z,101131.91
2018-07-02T19:40:38.986Z,101139.76
2018-07-02T19:43:07.889Z,101137.99
2018-07-02T19:45:36.358Z,101143.94
2018-07-02T19:48:05.721Z,101141.62
2018-07-02T19:50:34.491Z,101149.48
2018-07-02T19:53:04.166Z,101153.23
2018-07-02T19:55:32.851Z,101154.44
2018-07-02T19:58:01.703Z,101150.86
2018-07-02T20:00:30.447Z,101154.23
2018-07-02T20:02:59.477Z,101163.35
2018-07-02T20:05:28.007Z,101157.95
2018-07-02T20:07:56.721Z,101154.07
2018-07-02T20:10:25.794Z,101157.12
2018-07-02T20:12:54.362Z,101147.41
2018-07-02T20:15:23.285Z,101145.38
2018-07-02T20:17:52.363Z,101146.03
2018-07-02T20:20:22.460Z,101152.92
2018-07-02T20:22:51.802Z,101156.81
2018-07-02T20:25:21.348Z,101156.23
2018-07-02T20:27:51.518Z,101162.97
2018-07-02T20:30:20.219Z,101162.39
2018-07-02T20:32:49.497Z,101166.50
2018-07-02T20:35:18.656Z,101170.34
2018-07-02T20:37:48.252Z,101177.03
2018-07-02T20:40:16.963Z,101177.30
2018-07-02T20:42:46.411Z,101187.44
2018-07-02T20:45:15.049Z,101182.39
2018-07-02T20:47:43.640Z,101185.45
2018-07-02T20:50:12.134Z,101183.07
2018-07-02T20:52:40.682Z,101181.98
2018-07-02T20:55:10.023Z,101181.72
2018-07-02T20:57:38.683Z,101178.86
2018-07-02T21:00:07.879Z,101182.87
2018-07-02T21:02:36.425Z,101178.76
2018-07-02T21:05:05.085Z,101180.38
2018-07-02T21:07:33.643Z,101182.70
2018-07-02T21:10:03.207Z,101182.51
2018-07-02T21:12:31.807Z,101183.53
2018-07-02T21:15:00.368Z,101183.98
2018-07-02T21:17:28.977Z,101185.92
2018-07-02T21:19:58.248Z,101188.78
2018-07-02T21:22:26.766Z,101192.25
2018-07-02T21:24:55.353Z,101192.38
2018-07-02T21:27:24.126Z,101190.78
2018-07-02T21:29:52.745Z,101192.54
2018-07-02T21:32:21.779Z,101195.40
2018-07-02T21:34:50.358Z,101203.86
2018-07-02T21:37:19.467Z,101198.76
2018-07-02T21:39:47.923Z,101192.42
2018-07-02T21:42:18.062Z,101198.26
2018-07-02T21:44:46.616Z,101195.36
2018-07-02T21:47:15.144Z,101200.41
2018-07-02T21:49:43.813Z,101199.72
2018-07-02T21:52:12.379Z,101204.48
2018-07-02T21:54:41.206Z,101206.01
2018-07-02T21:57:09.735Z,101208.91
2018-07-02T21:59:38.427Z,101210.11
2018-07-02T22:02:07.142Z,101205.58
2018-07-02T22:04:36.070Z,101208.77
2018-07-02T22:07:04.834Z,101206.71
2018-07-02T22:09:33.566Z,101197.08
2018-07-02T22:12:02.214Z,101205.73
2018-07-02T22:14:30.711Z,101206.34
2018-07-02T22:16:59.468Z,101204.63
2018-07-02T22:19:28.969Z,101200.95
2018-07-02T22:21:57.470Z,101205.33
2018-07-02T22:24:26.548Z,101201.28
2018-07-02T22:26:56.115Z,101203.73
2018-07-02T22:29:24.851Z,101202.67
2018-07-02T22:31:53.885Z,101202.31
2018-07-02T22:34:22.428Z,101205.85
2018-07-02T22:36:50.945Z,101214.72
2018-07-02T22:39:19.438Z,101209.62
2018-07-02T22:41:48.029Z,101207.00
2018-07-02T22:44:17.194Z,101212.87
2018-07-02T22:46:46.805Z,101208.30
2018-07-02T22:49:15.767Z,101204.72
2018-07-02T22:51:44.789Z,101204.50
2018-07-02T22:54:14.025Z,101209.06
2018-07-02T22:56:43.466Z,101213.95
2018-07-02T22:59:13.730Z,101215.59
2018-07-02T23:01:42.294Z,101212.17
2018-07-02T23:04:10.913Z,101216.80
2018-07-02T23:06:39.465Z,101217.47
2018-07-02T23:09:09.229Z,101218.44
2018-07-02T23:11:38.816Z,101218.66
2018-07-02T23:14:07.383Z,101219.70
2018-07-02T23:16:36.073Z,101217.38
2018-07-02T23:19:04.734Z,101216.94
2018-07-02T23:21:34.166Z,101233.08
2018-07-02T23:24:02.646Z,101232.97
2018-07-02T23:26:31.316Z,101237.50
2018-07-02T23:29:00.329Z,101231.50
2018-07-02T23:31:28.781Z,101229.64
2018-07-02T23:33:57.255Z,101230.09
2018-07-02T23:36:25.716Z,101234.90
2018-07-02T23:38:54.234Z,101238.02
2018-07-02T23:41:23.372Z,101234.59
2018-07-02T23:43:51.927Z,101238.67
2018-07-02T23:46:20.517Z,101239.45
2018-07-02T23:48:49.087Z,101239.38
2018-07-02T23:51:17.567Z,101237.42
2018-07-02T23:53:46.075Z,101240.91
2018-07-02T23:56:14.635Z,101246.23
2018-07-02T23:58:45.788Z,101250.42
